sensor_id;sensor_type;location;lat;lon;timestamp;temperature;humidity
14053;DHT22;7101;51.600;7.310;2022-12-18T00:00:59;-9.40;24.30
14053;DHT22;7101;51.600;7.310;2022-12-18T00:03:31;-9.40;22.70
14053;DHT22;7101;51.600;7.310;2022-12-18T00:05:58;-9.40;24.00
14053;DHT22;7101;51.600;7.310;2022-12-18T00:08:25;-9.50;20.70
14053;DHT22;7101;51.600;7.310;2022-12-18T00:10:52;-9.50;24.20
14053;DHT22;7101;51.600;7.310;2022-12-18T00:13:18;-9.50;25.10
14053;DHT22;7101;51.600;7.310;2022-12-18T00:15:46;-9.50;20.30
14053;DHT22;7101;51.600;7.310;2022-12-18T00:18:13;-9.50;8.10
14053;DHT22;7101;51.600;7.310;2022-12-18T00:20:40;-9.50;1.00
14053;DHT22;7101;51.600;7.310;2022-12-18T00:23:07;-9.60;1.00
14053;DHT22;7101;51.600;7.310;2022-12-18T00:25:34;-9.60;1.00
14053;DHT22;7101;51.600;7.310;2022-12-18T00:28:01;-9.60;1.00
14053;DHT22;7101;51.600;7.310;2022-12-18T00:30:28;-9.40;1.00
14053;DHT22;7101;51.600;7.310;2022-12-18T00:32:57;-9.60;1.00
14053;DHT22;7101;51.600;7.310;2022-12-18T00:35:24;-9.70;1.00
14053;DHT22;7101;51.600;7.310;2022-12-18T00:37:50;-9.60;1.00
14053;DHT22;7101;51.600;7.310;2022-12-18T00:40:17;-9.40;1.00
14053;DHT22;7101;51.600;7.310;2022-12-18T00:42:44;-9.30;1.00
14053;DHT22;7101;51.600;7.310;2022-12-18T00:45:26;-9.40;1.00
14053;DHT22;7101;51.600;7.310;2022-12-18T00:47:54;-9.40;1.00
14053;DHT22;7101;51.600;7.310;2022-12-18T00:50:23;-9.30;1.00
14053;DHT22;7101;51.600;7.310;2022-12-18T00:52:51;-9.30;1.00
14053;DHT22;7101;51.600;7.310;2022-12-18T00:55:18;-9.30;1.00
14053;DHT22;7101;51.600;7.310;2022-12-18T00:57:45;-9.40;1.00
14053;DHT22;7101;51.600;7.310;2022-12-18T01:00:14;-9.50;1.00
14053;DHT22;7101;51.600;7.310;2022-12-18T01:02:41;-9.50;1.00
14053;DHT22;7101;51.600;7.310;2022-12-18T01:05:09;-9.60;1.00
14053;DHT22;7101;51.600;7.310;2022-12-18T01:07:38;-9.70;1.00
14053;DHT22;7101;51.600;7.310;2022-12-18T01:10:06;-9.70;1.00
14053;DHT22;7101;51.600;7.310;2022-12-18T01:12:33;-9.80;1.00
14053;DHT22;7101;51.600;7.310;2022-12-18T01:15:00;-9.80;1.00
14053;DHT22;7101;51.600;7.310;2022-12-18T01:17:27;-9.70;1.00
14053;DHT22;7101;51.600;7.310;2022-12-18T01:19:54;-9.70;1.00
14053;DHT22;7101;51.600;7.310;2022-12-18T01:22:21;-9.80;1.00
14053;DHT22;7101;51.600;7.310;2022-12-18T01:24:49;-9.90;1.00
14053;DHT22;7101;51.600;7.310;2022-12-18T01:27:16;-10.00;1.00
14053;DHT22;7101;51.600;7.310;2022-12-18T01:29:43;-9.90;1.00
14053;DHT22;7101;51.600;7.310;2022-12-18T01:32:09;-9.90;1.00
14053;DHT22;7101;51.600;7.310;2022-12-18T01:34:36;-9.90;1.00
14053;DHT22;7101;51.600;7.310;2022-12-18T01:37:04;-10.00;1.00
14053;DHT22;7101;51.600;7.310;2022-12-18T01:39:31;-10.00;1.00
14053;DHT22;7101;51.600;7.310;2022-12-18T01:42:00;-9.90;1.00
14053;DHT22;7101;51.600;7.310;2022-12-18T01:45:00;-9.60;1.00
14053;DHT22;7101;51.600;7.310;2022-12-18T01:47:31;-9.50;1.00
14053;DHT22;7101;51.600;7.310;2022-12-18T01:50:02;-9.60;1.00
14053;DHT22;7101;51.600;7.310;2022-12-18T01:52:31;-9.70;1.00
14053;DHT22;7101;51.600;7.310;2022-12-18T01:54:59;-9.80;1.00
14053;DHT22;7101;51.600;7.310;2022-12-18T01:57:28;-9.90;1.00
14053;DHT22;7101;51.600;7.310;2022-12-18T01:59:59;-10.00;1.00
14053;DHT22;7101;51.600;7.310;2022-12-18T02:02:27;-10.20;1.00
14053;DHT22;7101;51.600;7.310;2022-12-18T02:04:55;-10.20;1.00
14053;DHT22;7101;51.600;7.310;2022-12-18T02:07:26;-10.10;1.00
14053;DHT22;7101;51.600;7.310;2022-12-18T02:09:59;-10.10;1.00
14053;DHT22;7101;51.600;7.310;2022-12-18T02:12:31;-10.10;1.00
14053;DHT22;7101;51.600;7.310;2022-12-18T02:15:06;-10.00;1.00
14053;DHT22;7101;51.600;7.310;2022-12-18T02:17:38;-9.90;1.00
14053;DHT22;7101;51.600;7.310;2022-12-18T02:20:12;-9.70;1.00
14053;DHT22;7101;51.600;7.310;2022-12-18T02:22:46;-9.80;1.00
14053;DHT22;7101;51.600;7.310;2022-12-18T02:25:28;-9.80;1.00
14053;DHT22;7101;51.600;7.310;2022-12-18T02:28:02;-9.90;1.00
14053;DHT22;7101;51.600;7.310;2022-12-18T02:30:32;-9.90;1.00
14053;DHT22;7101;51.600;7.310;2022-12-18T02:33:02;-10.10;1.00
14053;DHT22;7101;51.600;7.310;2022-12-18T02:35:31;-10.10;1.00
14053;DHT22;7101;51.600;7.310;2022-12-18T02:37:59;-10.20;1.00
14053;DHT22;7101;51.600;7.310;2022-12-18T02:40:27;-10.20;1.00
14053;DHT22;7101;51.600;7.310;2022-12-18T02:42:54;-10.30;1.00
14053;DHT22;7101;51.600;7.310;2022-12-18T02:45:22;-10.40;1.00
14053;DHT22;7101;51.600;7.310;2022-12-18T02:47:49;-10.40;1.00
14053;DHT22;7101;51.600;7.310;2022-12-18T02:50:20;-10.40;1.00
14053;DHT22;7101;51.600;7.310;2022-12-18T02:52:55;-10.40;1.00
14053;DHT22;7101;51.600;7.310;2022-12-18T02:55:31;-10.30;1.00
14053;DHT22;7101;51.600;7.310;2022-12-18T02:58:04;-10.30;1.00
14053;DHT22;7101;51.600;7.310;2022-12-18T03:00:37;-10.40;1.00
14053;DHT22;7101;51.600;7.310;2022-12-18T03:03:07;-10.30;1.00
14053;DHT22;7101;51.600;7.310;2022-12-18T03:05:40;-10.30;1.00
14053;DHT22;7101;51.600;7.310;2022-12-18T03:08:10;-10.20;1.00
14053;DHT22;7101;51.600;7.310;2022-12-18T03:10:42;-10.20;1.00
14053;DHT22;7101;51.600;7.310;2022-12-18T03:13:13;-10.20;1.00
14053;DHT22;7101;51.600;7.310;2022-12-18T03:15:46;-10.20;1.00
14053;DHT22;7101;51.600;7.310;2022-12-18T03:18:17;-10.20;1.00
14053;DHT22;7101;51.600;7.310;2022-12-18T03:20:47;-10.30;1.00
14053;DHT22;7101;51.600;7.310;2022-12-18T03:23:18;-10.40;1.00
14053;DHT22;7101;51.600;7.310;2022-12-18T03:25:47;-10.30;1.00
14053;DHT22;7101;51.600;7.310;2022-12-18T03:28:20;-10.30;1.00
14053;DHT22;7101;51.600;7.310;2022-12-18T03:30:52;-10.30;1.00
14053;DHT22;7101;51.600;7.310;2022-12-18T03:33:25;-10.30;1.00
14053;DHT22;7101;51.600;7.310;2022-12-18T03:35:53;-10.40;1.00
14053;DHT22;7101;51.600;7.310;2022-12-18T03:38:20;-10.40;1.00
14053;DHT22;7101;51.600;7.310;2022-12-18T03:40:56;-10.40;1.00
14053;DHT22;7101;51.600;7.310;2022-12-18T03:43:35;-10.30;1.00
14053;DHT22;7101;51.600;7.310;2022-12-18T03:46:09;-10.00;1.00
14053;DHT22;7101;51.600;7.310;2022-12-18T03:48:42;-10.10;1.00
14053;DHT22;7101;51.600;7.310;2022-12-18T03:51:13;-10.10;1.00
14053;DHT22;7101;51.600;7.310;2022-12-18T03:53:45;-10.10;1.00
14053;DHT22;7101;51.600;7.310;2022-12-18T03:56:14;-10.10;1.00
14053;DHT22;7101;51.600;7.310;2022-12-18T03:58:43;-10.10;1.00
14053;DHT22;7101;51.600;7.310;2022-12-18T04:01:15;-10.30;1.00
14053;DHT22;7101;51.600;7.310;2022-12-18T04:03:43;-10.30;1.00
14053;DHT22;7101;51.600;7.310;2022-12-18T04:06:11;-10.30;1.00
14053;DHT22;7101;51.600;7.310;2022-12-18T04:08:39;-10.40;1.00
14053;DHT22;7101;51.600;7.310;2022-12-18T04:11:06;-10.40;1.00
14053;DHT22;7101;51.600;7.310;2022-12-18T04:13:35;-10.50;1.00
14053;DHT22;7101;51.600;7.310;2022-12-18T04:16:03;-10.50;1.00
14053;DHT22;7101;51.600;7.310;2022-12-18T04:18:31;-10.40;1.00
14053;DHT22;7101;51.600;7.310;2022-12-18T04:20:57;-10.40;1.00
14053;DHT22;7101;51.600;7.310;2022-12-18T04:23:24;-10.40;1.00
14053;DHT22;7101;51.600;7.310;2022-12-18T04:25:51;-10.40;1.00
14053;DHT22;7101;51.600;7.310;2022-12-18T04:28:18;-10.50;1.00
14053;DHT22;7101;51.600;7.310;2022-12-18T04:30:45;-10.50;1.00
14053;DHT22;7101;51.600;7.310;2022-12-18T04:33:12;-10.50;1.00
14053;DHT22;7101;51.600;7.310;2022-12-18T04:35:41;-10.60;1.00
14053;DHT22;7101;51.600;7.310;2022-12-18T04:38:09;-10.60;1.00
14053;DHT22;7101;51.600;7.310;2022-12-18T04:40:36;-10.60;1.00
14053;DHT22;7101;51.600;7.310;2022-12-18T04:43:04;-10.60;1.00
14053;DHT22;7101;51.600;7.310;2022-12-18T04:45:31;-10.60;1.00
14053;DHT22;7101;51.600;7.310;2022-12-18T04:47:58;-10.70;1.00
14053;DHT22;7101;51.600;7.310;2022-12-18T04:50:24;-10.70;1.00
14053;DHT22;7101;51.600;7.310;2022-12-18T04:52:52;-10.70;1.00
14053;DHT22;7101;51.600;7.310;2022-12-18T04:55:20;-10.70;1.00
14053;DHT22;7101;51.600;7.310;2022-12-18T04:57:47;-10.70;1.00
14053;DHT22;7101;51.600;7.310;2022-12-18T05:00:14;-10.60;1.00
14053;DHT22;7101;51.600;7.310;2022-12-18T05:02:42;-10.70;1.00
14053;DHT22;7101;51.600;7.310;2022-12-18T05:05:09;-10.70;1.00
14053;DHT22;7101;51.600;7.310;2022-12-18T05:07:36;-10.70;1.00
14053;DHT22;7101;51.600;7.310;2022-12-18T05:10:05;-10.70;1.00
14053;DHT22;7101;51.600;7.310;2022-12-18T05:12:32;-10.70;1.00
14053;DHT22;7101;51.600;7.310;2022-12-18T05:14:59;-10.70;1.00
14053;DHT22;7101;51.600;7.310;2022-12-18T05:17:26;-10.70;1.00
14053;DHT22;7101;51.600;7.310;2022-12-18T05:19:52;-10.70;1.00
14053;DHT22;7101;51.600;7.310;2022-12-18T05:22:19;-10.80;1.00
14053;DHT22;7101;51.600;7.310;2022-12-18T05:24:46;-10.80;1.00
14053;DHT22;7101;51.600;7.310;2022-12-18T05:27:14;-10.80;1.00
14053;DHT22;7101;51.600;7.310;2022-12-18T05:29:41;-10.70;1.00
14053;DHT22;7101;51.600;7.310;2022-12-18T05:32:07;-10.70;1.00
14053;DHT22;7101;51.600;7.310;2022-12-18T05:34:34;-10.70;1.00
14053;DHT22;7101;51.600;7.310;2022-12-18T05:37:01;-10.80;1.00
14053;DHT22;7101;51.600;7.310;2022-12-18T05:39:28;-10.80;1.00
14053;DHT22;7101;51.600;7.310;2022-12-18T05:41:54;-10.80;1.00
14053;DHT22;7101;51.600;7.310;2022-12-18T05:44:23;-10.80;1.00
14053;DHT22;7101;51.600;7.310;2022-12-18T05:46:49;-10.90;1.00
14053;DHT22;7101;51.600;7.310;2022-12-18T05:49:16;-10.90;1.00
14053;DHT22;7101;51.600;7.310;2022-12-18T05:51:43;-10.90;1.00
14053;DHT22;7101;51.600;7.310;2022-12-18T05:54:10;-10.80;1.00
14053;DHT22;7101;51.600;7.310;2022-12-18T05:56:37;-10.80;1.00
14053;DHT22;7101;51.600;7.310;2022-12-18T05:59:04;-10.80;1.00
14053;DHT22;7101;51.600;7.310;2022-12-18T06:01:32;-10.90;1.00
14053;DHT22;7101;51.600;7.310;2022-12-18T06:03:59;-10.90;1.00
14053;DHT22;7101;51.600;7.310;2022-12-18T06:06:26;-10.90;1.00
14053;DHT22;7101;51.600;7.310;2022-12-18T06:08:54;-10.90;1.00
14053;DHT22;7101;51.600;7.310;2022-12-18T06:11:24;-11.00;1.00
14053;DHT22;7101;51.600;7.310;2022-12-18T06:13:51;-10.90;1.00
14053;DHT22;7101;51.600;7.310;2022-12-18T06:16:18;-10.90;1.00
14053;DHT22;7101;51.600;7.310;2022-12-18T06:18:46;-10.90;1.00
14053;DHT22;7101;51.600;7.310;2022-12-18T06:21:13;-10.90;1.00
14053;DHT22;7101;51.600;7.310;2022-12-18T06:23:40;-11.00;1.00
14053;DHT22;7101;51.600;7.310;2022-12-18T06:26:08;-11.00;1.00
14053;DHT22;7101;51.600;7.310;2022-12-18T06:28:36;-11.00;1.00
14053;DHT22;7101;51.600;7.310;2022-12-18T06:31:03;-11.00;1.00
14053;DHT22;7101;51.600;7.310;2022-12-18T06:33:30;-11.00;1.00
14053;DHT22;7101;51.600;7.310;2022-12-18T06:36:01;-11.00;1.00
14053;DHT22;7101;51.600;7.310;2022-12-18T06:38:29;-10.90;1.00
14053;DHT22;7101;51.600;7.310;2022-12-18T06:40:56;-10.80;1.00
14053;DHT22;7101;51.600;7.310;2022-12-18T06:43:23;-10.80;1.00
14053;DHT22;7101;51.600;7.310;2022-12-18T06:45:49;-10.90;1.00
14053;DHT22;7101;51.600;7.310;2022-12-18T06:48:18;-10.90;1.00
14053;DHT22;7101;51.600;7.310;2022-12-18T06:50:45;-10.90;1.00
14053;DHT22;7101;51.600;7.310;2022-12-18T06:53:13;-10.90;1.00
14053;DHT22;7101;51.600;7.310;2022-12-18T06:55:40;-10.80;1.00
14053;DHT22;7101;51.600;7.310;2022-12-18T06:58:09;-10.80;1.00
14053;DHT22;7101;51.600;7.310;2022-12-18T07:00:36;-10.90;99.90
14053;DHT22;7101;51.600;7.310;2022-12-18T07:03:04;-10.90;99.90
14053;DHT22;7101;51.600;7.310;2022-12-18T07:05:31;-11.00;99.90
14053;DHT22;7101;51.600;7.310;2022-12-18T07:07:58;-11.00;99.90
14053;DHT22;7101;51.600;7.310;2022-12-18T07:10:27;-11.00;99.90
14053;DHT22;7101;51.600;7.310;2022-12-18T07:12:53;-10.90;1.00
14053;DHT22;7101;51.600;7.310;2022-12-18T07:15:20;-10.80;1.00
14053;DHT22;7101;51.600;7.310;2022-12-18T07:17:47;-10.80;1.00
14053;DHT22;7101;51.600;7.310;2022-12-18T07:20:14;-10.90;1.00
14053;DHT22;7101;51.600;7.310;2022-12-18T07:22:41;-10.90;99.90
14053;DHT22;7101;51.600;7.310;2022-12-18T07:25:07;-10.90;99.90
14053;DHT22;7101;51.600;7.310;2022-12-18T07:27:36;-10.80;1.00
14053;DHT22;7101;51.600;7.310;2022-12-18T07:30:03;-10.80;1.00
14053;DHT22;7101;51.600;7.310;2022-12-18T07:32:30;-10.70;1.00
14053;DHT22;7101;51.600;7.310;2022-12-18T07:34:57;-10.60;1.00
14053;DHT22;7101;51.600;7.310;2022-12-18T07:37:24;-10.60;1.00
14053;DHT22;7101;51.600;7.310;2022-12-18T07:39:50;-10.60;1.00
14053;DHT22;7101;51.600;7.310;2022-12-18T07:42:17;-10.50;1.00
14053;DHT22;7101;51.600;7.310;2022-12-18T07:45:02;-10.50;1.00
14053;DHT22;7101;51.600;7.310;2022-12-18T07:47:29;-10.40;1.00
14053;DHT22;7101;51.600;7.310;2022-12-18T07:49:56;-10.40;1.00
14053;DHT22;7101;51.600;7.310;2022-12-18T07:52:22;-10.30;1.00
14053;DHT22;7101;51.600;7.310;2022-12-18T07:54:49;-10.30;1.00
14053;DHT22;7101;51.600;7.310;2022-12-18T07:57:16;-10.20;1.00
14053;DHT22;7101;51.600;7.310;2022-12-18T07:59:43;-10.10;1.00
14053;DHT22;7101;51.600;7.310;2022-12-18T08:02:11;-10.00;1.00
14053;DHT22;7101;51.600;7.310;2022-12-18T08:04:38;-9.90;1.00
14053;DHT22;7101;51.600;7.310;2022-12-18T08:07:05;-9.80;1.00
14053;DHT22;7101;51.600;7.310;2022-12-18T08:09:32;-9.70;1.00
14053;DHT22;7101;51.600;7.310;2022-12-18T08:11:59;-9.60;1.00
14053;DHT22;7101;51.600;7.310;2022-12-18T08:14:26;-9.50;1.00
14053;DHT22;7101;51.600;7.310;2022-12-18T08:16:52;-9.30;1.00
14053;DHT22;7101;51.600;7.310;2022-12-18T08:19:21;-9.20;1.00
14053;DHT22;7101;51.600;7.310;2022-12-18T08:21:47;-9.00;1.00
14053;DHT22;7101;51.600;7.310;2022-12-18T08:24:14;-8.90;1.00
14053;DHT22;7101;51.600;7.310;2022-12-18T08:26:41;-8.70;1.00
14053;DHT22;7101;51.600;7.310;2022-12-18T08:29:09;-8.60;1.00
14053;DHT22;7101;51.600;7.310;2022-12-18T08:31:36;-8.40;1.00
14053;DHT22;7101;51.600;7.310;2022-12-18T08:34:03;-8.30;1.00
14053;DHT22;7101;51.600;7.310;2022-12-18T08:36:31;-8.10;1.00
14053;DHT22;7101;51.600;7.310;2022-12-18T08:38:58;-7.80;1.00
14053;DHT22;7101;51.600;7.310;2022-12-18T08:41:24;-7.40;1.00
14053;DHT22;7101;51.600;7.310;2022-12-18T08:43:51;-7.30;1.00
14053;DHT22;7101;51.600;7.310;2022-12-18T08:46:37;-7.00;1.00
14053;DHT22;7101;51.600;7.310;2022-12-18T08:49:05;-6.90;1.00
14053;DHT22;7101;51.600;7.310;2022-12-18T08:51:34;-6.50;1.00
14053;DHT22;7101;51.600;7.310;2022-12-18T08:54:01;-6.20;1.00
14053;DHT22;7101;51.600;7.310;2022-12-18T08:56:28;-6.00;1.00
14053;DHT22;7101;51.600;7.310;2022-12-18T08:58:57;-5.70;1.00
14053;DHT22;7101;51.600;7.310;2022-12-18T09:01:24;-5.50;1.00
14053;DHT22;7101;51.600;7.310;2022-12-18T09:03:51;-5.30;1.00
14053;DHT22;7101;51.600;7.310;2022-12-18T09:06:19;-5.30;1.00
14053;DHT22;7101;51.600;7.310;2022-12-18T09:08:47;-5.10;1.00
14053;DHT22;7101;51.600;7.310;2022-12-18T09:11:23;-5.10;1.00
14053;DHT22;7101;51.600;7.310;2022-12-18T09:13:50;-4.90;1.00
14053;DHT22;7101;51.600;7.310;2022-12-18T09:16:18;-4.70;1.00
14053;DHT22;7101;51.600;7.310;2022-12-18T09:18:45;-4.70;1.00
14053;DHT22;7101;51.600;7.310;2022-12-18T09:21:13;-4.50;1.00
14053;DHT22;7101;51.600;7.310;2022-12-18T09:23:40;-4.40;1.00
14053;DHT22;7101;51.600;7.310;2022-12-18T09:26:09;-4.20;1.00
14053;DHT22;7101;51.600;7.310;2022-12-18T09:28:35;-4.20;1.00
14053;DHT22;7101;51.600;7.310;2022-12-18T09:31:05;-4.10;1.00
14053;DHT22;7101;51.600;7.310;2022-12-18T09:33:32;-4.10;1.00
14053;DHT22;7101;51.600;7.310;2022-12-18T09:36:01;-3.80;1.00
14053;DHT22;7101;51.600;7.310;2022-12-18T09:38:28;-3.80;1.00
14053;DHT22;7101;51.600;7.310;2022-12-18T09:40:59;-3.70;1.00
14053;DHT22;7101;51.600;7.310;2022-12-18T09:43:33;-3.40;1.00
14053;DHT22;7101;51.600;7.310;2022-12-18T09:46:06;-3.30;1.00
14053;DHT22;7101;51.600;7.310;2022-12-18T09:48:36;-3.40;1.00
14053;DHT22;7101;51.600;7.310;2022-12-18T09:51:11;-3.30;1.00
14053;DHT22;7101;51.600;7.310;2022-12-18T09:53:41;-3.30;1.00
14053;DHT22;7101;51.600;7.310;2022-12-18T09:56:13;-3.10;1.00
14053;DHT22;7101;51.600;7.310;2022-12-18T09:58:46;-3.10;1.00
14053;DHT22;7101;51.600;7.310;2022-12-18T10:01:20;-2.90;1.00
14053;DHT22;7101;51.600;7.310;2022-12-18T10:03:48;-2.80;1.00
14053;DHT22;7101;51.600;7.310;2022-12-18T10:06:20;-2.70;1.00
14053;DHT22;7101;51.600;7.310;2022-12-18T10:08:52;-2.70;1.00
14053;DHT22;7101;51.600;7.310;2022-12-18T10:11:38;-2.60;1.00
14053;DHT22;7101;51.600;7.310;2022-12-18T10:14:14;-2.50;1.00
14053;DHT22;7101;51.600;7.310;2022-12-18T10:16:51;-2.40;1.00
14053;DHT22;7101;51.600;7.310;2022-12-18T10:22:26;-2.20;1.00
14053;DHT22;7101;51.600;7.310;2022-12-18T10:25:03;-2.00;1.00
14053;DHT22;7101;51.600;7.310;2022-12-18T10:27:31;-1.90;1.00
14053;DHT22;7101;51.600;7.310;2022-12-18T10:30:04;-1.90;1.00
14053;DHT22;7101;51.600;7.310;2022-12-18T10:32:38;-1.80;1.00
14053;DHT22;7101;51.600;7.310;2022-12-18T10:35:15;-1.90;1.00
14053;DHT22;7101;51.600;7.310;2022-12-18T10:38:00;-1.80;1.00
14053;DHT22;7101;51.600;7.310;2022-12-18T10:40:27;-1.80;1.00
14053;DHT22;7101;51.600;7.310;2022-12-18T10:43:04;-1.70;1.00
14053;DHT22;7101;51.600;7.310;2022-12-18T10:45:32;-1.60;1.00
14053;DHT22;7101;51.600;7.310;2022-12-18T10:47:59;-1.50;1.00
14053;DHT22;7101;51.600;7.310;2022-12-18T10:50:29;-1.60;99.90
14053;DHT22;7101;51.600;7.310;2022-12-18T10:52:58;-1.60;99.90
14053;DHT22;7101;51.600;7.310;2022-12-18T10:55:30;-1.50;99.90
14053;DHT22;7101;51.600;7.310;2022-12-18T10:58:15;-1.60;99.90
14053;DHT22;7101;51.600;7.310;2022-12-18T11:00:44;-1.40;99.90
14053;DHT22;7101;51.600;7.310;2022-12-18T11:03:28;-1.40;99.90
14053;DHT22;7101;51.600;7.310;2022-12-18T11:06:02;-1.30;99.90
14053;DHT22;7101;51.600;7.310;2022-12-18T11:08:30;-1.30;99.90
14053;DHT22;7101;51.600;7.310;2022-12-18T11:11:00;-1.20;99.90
14053;DHT22;7101;51.600;7.310;2022-12-18T11:13:29;-1.10;99.90
14053;DHT22;7101;51.600;7.310;2022-12-18T11:15:58;-1.10;99.90
14053;DHT22;7101;51.600;7.310;2022-12-18T11:18:28;-1.10;99.90
14053;DHT22;7101;51.600;7.310;2022-12-18T11:20:56;-1.00;99.90
14053;DHT22;7101;51.600;7.310;2022-12-18T11:23:27;-0.90;99.90
14053;DHT22;7101;51.600;7.310;2022-12-18T11:25:57;-0.70;99.90
14053;DHT22;7101;51.600;7.310;2022-12-18T11:28:33;-0.80;21.50
14053;DHT22;7101;51.600;7.310;2022-12-18T11:31:19;-0.70;99.90
14053;DHT22;7101;51.600;7.310;2022-12-18T11:33:50;-0.50;51.10
14053;DHT22;7101;51.600;7.310;2022-12-18T11:36:19;-0.50;99.90
14053;DHT22;7101;51.600;7.310;2022-12-18T11:38:47;-0.40;99.90
14053;DHT22;7101;51.600;7.310;2022-12-18T11:41:21;-0.30;1.00
14053;DHT22;7101;51.600;7.310;2022-12-18T11:44:11;-0.50;21.50
14053;DHT22;7101;51.600;7.310;2022-12-18T11:46:46;-0.40;1.00
14053;DHT22;7101;51.600;7.310;2022-12-18T11:49:18;-0.50;1.00
14053;DHT22;7101;51.600;7.310;2022-12-18T11:51:51;-0.40;1.00
14053;DHT22;7101;51.600;7.310;2022-12-18T11:54:21;-0.50;1.00
14053;DHT22;7101;51.600;7.310;2022-12-18T11:56:51;-0.30;1.00
14053;DHT22;7101;51.600;7.310;2022-12-18T11:59:27;-0.30;1.00
14053;DHT22;7101;51.600;7.310;2022-12-18T12:02:09;-0.20;1.00
14053;DHT22;7101;51.600;7.310;2022-12-18T12:04:48;-0.20;1.00
14053;DHT22;7101;51.600;7.310;2022-12-18T12:07:36;-0.30;1.00
14053;DHT22;7101;51.600;7.310;2022-12-18T12:10:16;-0.10;91.10
14053;DHT22;7101;51.600;7.310;2022-12-18T12:12:56;0.00;11.20
14053;DHT22;7101;51.600;7.310;2022-12-18T12:15:34;0.10;1.00
14053;DHT22;7101;51.600;7.310;2022-12-18T12:18:08;0.10;1.00
14053;DHT22;7101;51.600;7.310;2022-12-18T12:20:49;0.10;1.00
14053;DHT22;7101;51.600;7.310;2022-12-18T12:23:26;0.20;1.00
14053;DHT22;7101;51.600;7.310;2022-12-18T12:25:58;0.10;1.00
14053;DHT22;7101;51.600;7.310;2022-12-18T12:28:42;0.20;1.00
14053;DHT22;7101;51.600;7.310;2022-12-18T12:31:23;0.30;1.00
14053;DHT22;7101;51.600;7.310;2022-12-18T12:34:01;0.40;1.00
14053;DHT22;7101;51.600;7.310;2022-12-18T12:36:40;0.30;1.00
14053;DHT22;7101;51.600;7.310;2022-12-18T12:39:14;0.20;1.00
14053;DHT22;7101;51.600;7.310;2022-12-18T12:41:42;0.20;1.00
14053;DHT22;7101;51.600;7.310;2022-12-18T12:44:32;0.20;1.00
14053;DHT22;7101;51.600;7.310;2022-12-18T12:47:04;0.50;1.00
14053;DHT22;7101;51.600;7.310;2022-12-18T12:49:34;0.60;1.00
14053;DHT22;7101;51.600;7.310;2022-12-18T12:52:06;0.60;1.00
14053;DHT22;7101;51.600;7.310;2022-12-18T12:54:34;0.50;1.00
14053;DHT22;7101;51.600;7.310;2022-12-18T12:57:07;0.50;1.00
14053;DHT22;7101;51.600;7.310;2022-12-18T12:59:42;0.50;1.00
14053;DHT22;7101;51.600;7.310;2022-12-18T13:02:20;0.60;1.00
14053;DHT22;7101;51.600;7.310;2022-12-18T13:04:56;0.60;99.90
14053;DHT22;7101;51.600;7.310;2022-12-18T13:07:27;0.60;1.00
14053;DHT22;7101;51.600;7.310;2022-12-18T13:10:14;0.50;99.90
14053;DHT22;7101;51.600;7.310;2022-12-18T13:12:54;0.40;1.00
14053;DHT22;7101;51.600;7.310;2022-12-18T13:15:26;0.50;1.00
14053;DHT22;7101;51.600;7.310;2022-12-18T13:18:27;0.50;99.90
14053;DHT22;7101;51.600;7.310;2022-12-18T13:21:19;0.80;99.90
14053;DHT22;7101;51.600;7.310;2022-12-18T13:23:47;0.70;1.00
14053;DHT22;7101;51.600;7.310;2022-12-18T13:26:31;0.60;59.10
14053;DHT22;7101;51.600;7.310;2022-12-18T13:29:02;0.50;99.90
14053;DHT22;7101;51.600;7.310;2022-12-18T13:31:59;0.40;99.90
14053;DHT22;7101;51.600;7.310;2022-12-18T13:34:29;0.30;99.90
14053;DHT22;7101;51.600;7.310;2022-12-18T13:40:05;0.60;99.90
14053;DHT22;7101;51.600;7.310;2022-12-18T13:42:51;0.50;6.30
14053;DHT22;7101;51.600;7.310;2022-12-18T13:45:44;0.60;99.90
14053;DHT22;7101;51.600;7.310;2022-12-18T13:48:22;0.50;1.00
14053;DHT22;7101;51.600;7.310;2022-12-18T13:50:53;0.50;99.90
14053;DHT22;7101;51.600;7.310;2022-12-18T13:53:24;0.30;99.90
14053;DHT22;7101;51.600;7.310;2022-12-18T13:55:53;0.30;1.00
14053;DHT22;7101;51.600;7.310;2022-12-18T13:58:20;0.30;1.00
14053;DHT22;7101;51.600;7.310;2022-12-18T14:00:47;0.40;1.00
14053;DHT22;7101;51.600;7.310;2022-12-18T14:03:20;0.40;1.00
14053;DHT22;7101;51.600;7.310;2022-12-18T14:05:53;0.30;99.90
14053;DHT22;7101;51.600;7.310;2022-12-18T14:08:33;0.30;1.00
14053;DHT22;7101;51.600;7.310;2022-12-18T14:11:03;0.30;99.90
14053;DHT22;7101;51.600;7.310;2022-12-18T14:13:33;0.30;99.90
14053;DHT22;7101;51.600;7.310;2022-12-18T14:16:01;0.30;1.00
14053;DHT22;7101;51.600;7.310;2022-12-18T14:18:33;0.20;99.90
14053;DHT22;7101;51.600;7.310;2022-12-18T14:21:02;0.20;1.00
14053;DHT22;7101;51.600;7.310;2022-12-18T14:23:33;0.10;1.00
14053;DHT22;7101;51.600;7.310;2022-12-18T14:26:00;0.00;1.00
14053;DHT22;7101;51.600;7.310;2022-12-18T14:28:27;-0.10;1.00
14053;DHT22;7101;51.600;7.310;2022-12-18T14:30:55;-0.10;1.00
14053;DHT22;7101;51.600;7.310;2022-12-18T14:33:23;-0.10;1.00
14053;DHT22;7101;51.600;7.310;2022-12-18T14:35:56;-0.20;1.00
14053;DHT22;7101;51.600;7.310;2022-12-18T14:38:26;-0.30;1.00
14053;DHT22;7101;51.600;7.310;2022-12-18T14:40:56;-0.30;1.00
14053;DHT22;7101;51.600;7.310;2022-12-18T14:43:24;-0.20;1.00
14053;DHT22;7101;51.600;7.310;2022-12-18T14:45:52;-0.20;5.40
14053;DHT22;7101;51.600;7.310;2022-12-18T14:48:20;-0.30;79.90
14053;DHT22;7101;51.600;7.310;2022-12-18T14:50:56;-0.40;99.90
14053;DHT22;7101;51.600;7.310;2022-12-18T14:53:36;-0.30;99.90
14053;DHT22;7101;51.600;7.310;2022-12-18T14:56:14;-0.40;99.90
14053;DHT22;7101;51.600;7.310;2022-12-18T14:58:45;-0.40;99.90
14053;DHT22;7101;51.600;7.310;2022-12-18T15:01:21;-0.50;99.90
14053;DHT22;7101;51.600;7.310;2022-12-18T15:03:50;-0.50;99.90
14053;DHT22;7101;51.600;7.310;2022-12-18T15:06:23;-0.50;99.90
14053;DHT22;7101;51.600;7.310;2022-12-18T15:08:51;-0.50;99.90
14053;DHT22;7101;51.600;7.310;2022-12-18T15:11:33;-0.50;99.90
14053;DHT22;7101;51.600;7.310;2022-12-18T15:14:22;-0.50;99.90
14053;DHT22;7101;51.600;7.310;2022-12-18T15:16:53;-0.60;99.90
14053;DHT22;7101;51.600;7.310;2022-12-18T15:19:21;-0.50;99.90
14053;DHT22;7101;51.600;7.310;2022-12-18T15:21:49;-0.50;99.90
14053;DHT22;7101;51.600;7.310;2022-12-18T15:24:20;-0.60;99.90
14053;DHT22;7101;51.600;7.310;2022-12-18T15:26:49;-0.60;99.90
14053;DHT22;7101;51.600;7.310;2022-12-18T15:29:20;-0.70;99.90
14053;DHT22;7101;51.600;7.310;2022-12-18T15:32:01;-0.70;1.00
14053;DHT22;7101;51.600;7.310;2022-12-18T15:34:29;-0.70;1.00
14053;DHT22;7101;51.600;7.310;2022-12-18T15:36:56;-0.80;1.00
14053;DHT22;7101;51.600;7.310;2022-12-18T15:39:23;-0.80;1.00
14053;DHT22;7101;51.600;7.310;2022-12-18T15:41:51;-0.80;1.00
14053;DHT22;7101;51.600;7.310;2022-12-18T15:44:36;-0.80;1.00
14053;DHT22;7101;51.600;7.310;2022-12-18T15:47:09;-0.80;1.00
14053;DHT22;7101;51.600;7.310;2022-12-18T15:49:36;-0.70;1.00
14053;DHT22;7101;51.600;7.310;2022-12-18T15:52:03;-0.80;1.00
14053;DHT22;7101;51.600;7.310;2022-12-18T15:54:31;-0.70;1.00
14053;DHT22;7101;51.600;7.310;2022-12-18T15:57:17;-0.80;1.00
14053;DHT22;7101;51.600;7.310;2022-12-18T15:59:50;-0.80;1.00
14053;DHT22;7101;51.600;7.310;2022-12-18T16:02:19;-0.80;1.00
14053;DHT22;7101;51.600;7.310;2022-12-18T16:04:48;-0.80;1.00
14053;DHT22;7101;51.600;7.310;2022-12-18T16:07:15;-0.80;1.00
14053;DHT22;7101;51.600;7.310;2022-12-18T16:09:41;-0.80;1.00
14053;DHT22;7101;51.600;7.310;2022-12-18T16:12:16;-0.90;1.00
14053;DHT22;7101;51.600;7.310;2022-12-18T16:14:45;-0.90;1.00
14053;DHT22;7101;51.600;7.310;2022-12-18T16:17:13;-0.80;1.00
14053;DHT22;7101;51.600;7.310;2022-12-18T16:19:40;-0.80;1.00
14053;DHT22;7101;51.600;7.310;2022-12-18T16:22:19;-0.80;1.00